createdAt,value
2022-11-02T00:02:02.152Z,66.99
2022-11-02T00:04:30.265Z,66.80
2022-11-02T00:06:59.645Z,67.05
2022-11-02T00:09:27.752Z,67.09
2022-11-02T00:11:55.708Z,67.22
2022-11-02T00:14:23.578Z,67.24
2022-11-02T00:16:52.686Z,67.32
2022-11-02T00:19:21.202Z,67.49
2022-11-02T00:21:52.697Z,67.09
2022-11-02T00:24:22.377Z,66.76
2022-11-02T00:26:50.419Z,66.73
2022-11-02T00:29:18.366Z,67.32
2022-11-02T00:31:49.157Z,67.10
2022-11-02T00:34:21.299Z,66.98
2022-11-02T00:36:55.344Z,67.12
2022-11-02T00:39:25.202Z,67.34
2022-11-02T00:41:54.670Z,67.31
2022-11-02T00:44:28.466Z,67.35
2022-11-02T00:46:56.901Z,67.41
2022-11-02T00:49:26.092Z,67.07
2022-11-02T00:51:54.052Z,67.68
2022-11-02T00:54:25.918Z,67.40
2022-11-02T00:56:58.175Z,67.59
2022-11-02T00:59:26.397Z,68.09
2022-11-02T01:01:57.185Z,67.76
2022-11-02T01:04:25.281Z,67.98
2022-11-02T01:06:53.213Z,68.09
2022-11-02T01:09:21.688Z,68.44
2022-11-02T01:11:49.767Z,68.19
2022-11-02T01:14:21.689Z,68.15
2022-11-02T01:16:49.926Z,68.71
2022-11-02T01:19:19.759Z,68.91
2022-11-02T01:21:47.625Z,68.69
2022-11-02T01:24:15.339Z,69.00
2022-11-02T01:26:43.385Z,68.39
2022-11-02T01:29:12.867Z,68.12
2022-11-02T01:31:42.251Z,68.40
2022-11-02T01:34:11.671Z,68.21
2022-11-02T01:36:39.506Z,68.25
2022-11-02T01:39:07.960Z,68.02
2022-11-02T01:41:36.137Z,68.27
2022-11-02T01:44:05.361Z,67.83
2022-11-02T01:46:39.924Z,68.03
2022-11-02T01:49:13.548Z,68.63
2022-11-02T01:51:46.504Z,68.37
2022-11-02T01:54:17.794Z,68.49
2022-11-02T01:56:50.416Z,68.34
2022-11-02T01:59:22.199Z,68.27
2022-11-02T02:01:50.433Z,68.72
2022-11-02T02:04:20.297Z,68.66
2022-11-02T02:06:50.527Z,68.65
2022-11-02T02:09:21.936Z,68.52
2022-11-02T02:11:53.017Z,68.73
2022-11-02T02:14:22.862Z,68.81
2022-11-02T02:17:03.835Z,68.28
2022-11-02T02:19:49.451Z,68.29
2022-11-02T02:22:37.407Z,68.65
2022-11-02T02:25:24.958Z,68.07
2022-11-02T02:28:08.650Z,68.04
2022-11-02T02:30:44.661Z,68.17
2022-11-02T02:33:18.683Z,68.13
2022-11-02T02:35:55.104Z,68.20
2022-11-02T02:38:30.849Z,68.06
2022-11-02T02:41:04.435Z,67.87
2022-11-02T02:43:41.424Z,68.20
2022-11-02T02:46:11.629Z,68.07
2022-11-02T02:48:42.590Z,68.10
2022-11-02T02:51:13.527Z,68.11
2022-11-02T02:53:44.608Z,67.68
2022-11-02T02:56:17.677Z,67.72
2022-11-02T02:58:57.113Z,67.63
2022-11-02T03:01:27.157Z,67.60
2022-11-02T03:03:55.922Z,67.71
2022-11-02T03:06:27.567Z,67.43
2022-11-02T03:09:04.660Z,67.89
2022-11-02T03:11:34.664Z,67.54
2022-11-02T03:14:13.765Z,67.97
2022-11-02T03:17:00.961Z,68.21
2022-11-02T03:19:41.529Z,68.17
2022-11-02T03:22:16.443Z,68.46
2022-11-02T03:24:52.534Z,68.47
2022-11-02T03:27:24.470Z,68.68
2022-11-02T03:30:05.407Z,68.45
2022-11-02T03:32:38.307Z,68.07
2022-11-02T03:35:13.080Z,68.39
2022-11-02T03:37:46.391Z,67.75
2022-11-02T03:40:19.200Z,67.96
2022-11-02T03:42:50.097Z,67.91
2022-11-02T03:45:23.849Z,68.18
2022-11-02T03:47:55.455Z,67.91
2022-11-02T03:50:28.075Z,68.16
2022-11-02T03:53:00.070Z,68.20
2022-11-02T03:55:32.711Z,68.27
2022-11-02T03:58:00.958Z,68.66
2022-11-02T04:00:36.038Z,68.57
2022-11-02T04:03:09.036Z,68.75
2022-11-02T04:05:41.955Z,68.71
2022-11-02T04:08:41.606Z,68.75
2022-11-02T04:11:28.800Z,68.35
2022-11-02T04:14:20.183Z,68.55
2022-11-02T04:16:49.530Z,68.45
2022-11-02T04:19:29.402Z,68.54
2022-11-02T04:22:21.065Z,68.58
2022-11-02T04:25:11.190Z,68.92
2022-11-02T04:27:40.298Z,68.89
2022-11-02T04:30:11.037Z,68.64
2022-11-02T04:32:58.422Z,68.97
2022-11-02T04:35:29.228Z,69.01
2022-11-02T04:38:15.727Z,68.81
2022-11-02T04:40:45.025Z,69.11
2022-11-02T04:43:13.214Z,68.58
2022-11-02T04:45:41.332Z,68.96
2022-11-02T04:48:11.297Z,69.01
2022-11-02T04:50:39.712Z,68.95
2022-11-02T04:53:08.784Z,68.64
2022-11-02T04:55:39.032Z,68.85
2022-11-02T04:58:08.223Z,68.89
2022-11-02T05:00:40.927Z,69.56
2022-11-02T05:03:12.966Z,69.56
2022-11-02T05:05:43.676Z,69.57
2022-11-02T05:08:13.106Z,69.53
2022-11-02T05:10:41.345Z,69.10
2022-11-02T05:13:12.758Z,69.43
2022-11-02T05:15:41.681Z,69.44
2022-11-02T05:18:14.875Z,69.65
2022-11-02T05:20:51.464Z,69.54
2022-11-02T05:23:22.681Z,69.77
2022-11-02T05:25:57.603Z,69.52
2022-11-02T05:28:27.151Z,69.64
2022-11-02T05:30:56.314Z,69.97
2022-11-02T05:33:32.661Z,69.78
2022-11-02T05:36:06.621Z,69.73
2022-11-02T05:38:37.010Z,70.17
2022-11-02T05:41:05.963Z,69.78
2022-11-02T05:43:37.226Z,70.28
2022-11-02T05:46:07.329Z,70.04
2022-11-02T05:48:37.578Z,70.54
2022-11-02T05:51:06.120Z,70.16
2022-11-02T05:53:38.269Z,70.08
2022-11-02T05:56:08.436Z,70.15
2022-11-02T05:58:36.572Z,69.28
2022-11-02T06:01:09.769Z,69.51
2022-11-02T06:03:40.308Z,69.93
2022-11-02T06:06:12.288Z,70.35
2022-11-02T06:08:40.909Z,70.50
2022-11-02T06:11:11.252Z,70.15
2022-11-02T06:13:39.548Z,70.57
2022-11-02T06:16:10.300Z,70.04
2022-11-02T06:18:54.413Z,70.56
2022-11-02T06:21:22.253Z,70.91
2022-11-02T06:23:50.738Z,70.92
2022-11-02T06:26:21.919Z,70.90
2022-11-02T06:28:50.089Z,70.72
2022-11-02T06:31:20.545Z,70.32
2022-11-02T06:34:02.636Z,70.98
2022-11-02T06:36:30.478Z,70.17
2022-11-02T06:38:58.263Z,70.51
2022-11-02T06:41:26.120Z,70.26
2022-11-02T06:43:54.238Z,70.96
2022-11-02T06:46:22.234Z,70.75
2022-11-02T06:48:51.363Z,70.47
2022-11-02T06:51:23.719Z,70.22
2022-11-02T06:53:52.256Z,70.94
2022-11-02T06:56:21.387Z,70.45
2022-11-02T06:58:49.697Z,70.29
2022-11-02T07:01:18.118Z,70.28
2022-11-02T07:03:46.314Z,70.18
2022-11-02T07:06:16.716Z,69.95
2022-11-02T07:08:45.960Z,70.18
2022-11-02T07:11:17.289Z,70.76
2022-11-02T07:13:46.177Z,70.67
2022-11-02T07:16:14.698Z,70.82
2022-11-02T07:18:42.736Z,70.82
2022-11-02T07:21:11.969Z,70.38
2022-11-02T07:23:40.233Z,70.12
2022-11-02T07:26:09.756Z,69.69
2022-11-02T07:28:40.457Z,69.29
2022-11-02T07:31:08.395Z,69.05
2022-11-02T07:36:18.185Z,68.99
2022-11-02T07:38:46.622Z,68.91
2022-11-02T07:41:19.045Z,68.72
2022-11-02T07:43:46.899Z,68.57
2022-11-02T07:46:33.592Z,68.66
2022-11-02T07:49:05.409Z,68.44
2022-11-02T07:51:33.301Z,68.35
2022-11-02T07:54:02.898Z,68.19
2022-11-02T07:56:32.238Z,68.04
2022-11-02T07:59:00.033Z,67.84
2022-11-02T08:01:41.360Z,67.71
2022-11-02T08:04:13.323Z,67.44
2022-11-02T08:06:41.667Z,67.18
2022-11-02T08:09:17.320Z,66.85
2022-11-02T08:11:49.658Z,66.70
2022-11-02T08:14:18.344Z,66.47
2022-11-02T08:16:48.147Z,66.76
2022-11-02T08:19:23.711Z,66.88
2022-11-02T08:22:00.818Z,66.41
2022-11-02T08:24:28.668Z,66.39
2022-11-02T08:27:04.113Z,66.60
2022-11-02T08:29:37.697Z,66.72
2022-11-02T08:32:09.389Z,66.70
2022-11-02T08:34:49.411Z,66.49
2022-11-02T08:37:17.388Z,66.72
2022-11-02T08:39:45.249Z,66.55
2022-11-02T08:42:14.686Z,66.41
2022-11-02T08:44:42.935Z,66.48
2022-11-02T08:47:19.885Z,66.94
2022-11-02T08:49:56.809Z,66.78
2022-11-02T08:52:24.845Z,66.72
2022-11-02T08:54:58.621Z,66.57
2022-11-02T08:57:32.486Z,66.18
2022-11-02T09:00:02.406Z,65.95
2022-11-02T09:02:30.350Z,65.84
2022-11-02T09:04:58.267Z,65.86
2022-11-02T09:07:26.010Z,65.87
2022-11-02T09:09:53.995Z,65.56
2022-11-02T09:12:25.114Z,66.12
2022-11-02T09:14:59.518Z,66.20
2022-11-02T09:17:30.587Z,66.07
2022-11-02T09:20:08.952Z,66.07
2022-11-02T09:22:39.899Z,65.86
2022-11-02T09:25:12.529Z,65.79
2022-11-02T09:27:49.392Z,65.97
2022-11-02T09:30:21.913Z,65.60
2022-11-02T09:32:59.758Z,65.55
2022-11-02T09:35:29.097Z,65.43
2022-11-02T09:37:57.565Z,65.05
2022-11-02T09:40:37.159Z,65.18
2022-11-02T09:43:15.427Z,65.08
2022-11-02T09:48:40.818Z,65.01
2022-11-02T09:51:11.813Z,65.02
2022-11-02T09:53:53.423Z,64.51
2022-11-02T09:56:21.654Z,64.52
2022-11-02T09:58:56.745Z,64.89
2022-11-02T10:01:45.023Z,63.58
2022-11-02T10:04:51.003Z,62.58
2022-11-02T10:07:35.426Z,64.13
2022-11-02T10:10:13.130Z,63.79
2022-11-02T10:12:49.510Z,63.11
2022-11-02T10:15:21.977Z,62.51
2022-11-02T10:17:58.091Z,62.69
2022-11-02T10:20:28.895Z,63.11
2022-11-02T10:23:03.747Z,63.26
2022-11-02T10:25:34.288Z,63.24
2022-11-02T10:28:10.960Z,62.80
2022-11-02T10:30:45.960Z,62.52
2022-11-02T10:33:20.670Z,63.79
2022-11-02T10:36:17.347Z,63.53
2022-11-02T10:38:59.635Z,62.61
2022-11-02T10:41:54.459Z,60.86
2022-11-02T10:44:37.495Z,57.47
2022-11-02T10:47:17.278Z,62.27
2022-11-02T10:50:14.097Z,60.46
2022-11-02T10:52:47.446Z,61.17
2022-11-02T10:55:23.914Z,61.28
2022-11-02T10:57:55.718Z,62.72
2022-11-02T11:00:32.364Z,62.63
2022-11-02T11:03:09.029Z,62.87
2022-11-02T11:06:00.337Z,62.76
2022-11-02T11:08:31.566Z,63.04
2022-11-02T11:11:29.225Z,61.71
2022-11-02T11:16:52.415Z,62.35
2022-11-02T11:22:33.730Z,60.53
2022-11-02T11:25:27.818Z,57.64
2022-11-02T11:27:57.553Z,61.09
2022-11-02T11:33:23.116Z,62.24
2022-11-02T11:36:00.267Z,61.73
2022-11-02T11:38:29.479Z,62.18
2022-11-02T11:41:00.570Z,61.91
2022-11-02T11:43:30.705Z,62.33
2022-11-02T11:46:06.532Z,62.30
2022-11-02T11:48:40.408Z,62.44
2022-11-02T11:51:41.510Z,62.01
2022-11-02T11:54:28.081Z,61.47
2022-11-02T11:56:57.855Z,61.89
2022-11-02T11:59:30.176Z,61.72
2022-11-02T12:02:03.750Z,62.18
2022-11-02T12:04:35.197Z,61.76
2022-11-02T12:07:37.284Z,60.50
2022-11-02T12:10:15.930Z,62.01
2022-11-02T12:13:15.799Z,61.20
2022-11-02T12:16:07.369Z,61.53
2022-11-02T12:22:02.209Z,58.23
2022-11-02T12:25:04.141Z,55.95
2022-11-02T12:27:48.247Z,60.03
2022-11-02T12:30:19.974Z,60.75
2022-11-02T12:33:03.609Z,59.97
2022-11-02T12:36:06.834Z,58.74
2022-11-02T12:38:57.549Z,56.08
2022-11-02T12:41:41.998Z,60.97
2022-11-02T12:44:36.175Z,55.50
2022-11-02T12:47:14.316Z,61.30
2022-11-02T12:49:55.579Z,61.45
2022-11-02T12:52:44.019Z,60.13
2022-11-02T12:55:21.416Z,61.96
2022-11-02T12:57:50.534Z,61.58
2022-11-02T13:00:24.215Z,61.37
2022-11-02T13:02:59.849Z,60.96
2022-11-02T13:05:42.659Z,61.12
2022-11-02T13:08:15.567Z,60.99
2022-11-02T13:10:50.773Z,61.37
2022-11-02T13:13:31.208Z,61.12
2022-11-02T13:16:05.851Z,60.44
2022-11-02T13:18:39.899Z,60.89
2022-11-02T13:21:09.116Z,60.54
2022-11-02T13:23:44.722Z,61.03
2022-11-02T13:26:30.589Z,60.64
2022-11-02T13:29:07.420Z,61.17
2022-11-02T13:31:47.349Z,60.67
2022-11-02T13:34:20.289Z,61.24
2022-11-02T13:36:48.211Z,61.76
2022-11-02T13:39:21.586Z,61.86
2022-11-02T13:42:25.630Z,61.41
2022-11-02T13:45:26.775Z,61.51
2022-11-02T13:48:32.905Z,61.60
2022-11-02T13:51:06.261Z,61.58
2022-11-02T13:53:41.943Z,61.48
2022-11-02T13:56:25.737Z,61.47
2022-11-02T13:59:01.458Z,61.07
2022-11-02T14:01:39.715Z,60.31
2022-11-02T14:04:11.973Z,61.24
2022-11-02T14:06:51.321Z,61.24
2022-11-02T14:09:27.889Z,61.31
2022-11-02T14:12:29.332Z,59.89
2022-11-02T14:15:44.739Z,60.99
2022-11-02T14:18:15.089Z,61.52
2022-11-02T14:20:48.417Z,61.29
2022-11-02T14:23:39.084Z,60.75
2022-11-02T14:26:56.831Z,60.38
2022-11-02T14:29:39.954Z,61.35
2022-11-02T14:32:16.561Z,61.83
2022-11-02T14:35:00.591Z,61.76
2022-11-02T14:37:47.357Z,62.02
2022-11-02T14:40:28.962Z,61.96
2022-11-02T14:43:37.256Z,61.95
2022-11-02T14:49:19.591Z,62.38
2022-11-02T14:52:03.923Z,62.01
2022-11-02T14:54:39.486Z,61.96
2022-11-02T14:57:17.228Z,61.81
2022-11-02T14:59:51.612Z,61.92
2022-11-02T15:02:24.975Z,62.42
2022-11-02T15:04:59.138Z,62.71
2022-11-02T15:10:39.442Z,62.85
2022-11-02T15:13:49.253Z,62.91
2022-11-02T15:16:24.568Z,63.42
2022-11-02T15:18:53.618Z,63.81
2022-11-02T15:21:28.472Z,63.73
2022-11-02T15:24:21.248Z,63.01
2022-11-02T15:26:53.394Z,63.57
2022-11-02T15:29:42.299Z,63.65
2022-11-02T15:32:22.280Z,63.70
2022-11-02T15:34:52.602Z,64.14
2022-11-02T15:37:23.665Z,63.99
2022-11-02T15:39:53.177Z,64.33
2022-11-02T15:42:40.429Z,64.26
2022-11-02T15:46:00.352Z,64.44
2022-11-02T15:48:40.267Z,64.61
2022-11-02T15:51:17.109Z,64.85
2022-11-02T15:54:03.419Z,64.48
2022-11-02T15:56:52.138Z,64.61
2022-11-02T16:00:01.971Z,64.34
2022-11-02T16:02:41.061Z,64.67
2022-11-02T16:05:20.657Z,64.09
2022-11-02T16:08:20.755Z,64.77
2022-11-02T16:10:48.595Z,64.64
2022-11-02T16:13:22.928Z,64.46
2022-11-02T16:15:58.653Z,64.51
2022-11-02T16:18:29.893Z,64.87
2022-11-02T16:21:02.153Z,64.72
2022-11-02T16:23:43.552Z,64.89
2022-11-02T16:26:19.723Z,64.61
2022-11-02T16:28:50.925Z,64.73
2022-11-02T16:31:21.481Z,64.73
2022-11-02T16:33:52.963Z,65.12
2022-11-02T16:36:25.804Z,64.92
2022-11-02T16:38:59.515Z,64.94
2022-11-02T16:41:29.603Z,65.00
2022-11-02T16:43:59.883Z,64.97
2022-11-02T16:46:45.277Z,64.91
2022-11-02T16:49:18.474Z,65.17
2022-11-02T16:51:54.062Z,65.64
2022-11-02T16:54:40.698Z,65.22
2022-11-02T16:57:16.530Z,65.46
2022-11-02T16:59:56.694Z,65.29
2022-11-02T17:02:35.282Z,65.56
2022-11-02T17:05:07.246Z,65.83
2022-11-02T17:07:39.841Z,65.21
2022-11-02T17:10:09.113Z,65.15
2022-11-02T17:12:41.313Z,65.50
2022-11-02T17:15:17.329Z,65.94
2022-11-02T17:17:45.244Z,65.72
2022-11-02T17:20:21.730Z,66.08
2022-11-02T17:22:52.462Z,66.32
2022-11-02T17:25:22.671Z,66.03
2022-11-02T17:27:51.754Z,65.96
2022-11-02T17:30:42.765Z,65.74
2022-11-02T17:33:18.261Z,65.57
2022-11-02T17:35:49.413Z,65.88
2022-11-02T17:38:19.551Z,65.28
2022-11-02T17:40:52.034Z,65.67
2022-11-02T17:43:27.010Z,65.65
2022-11-02T17:45:57.069Z,65.77
2022-11-02T17:48:28.488Z,65.86
2022-11-02T17:50:59.774Z,65.92
2022-11-02T17:53:32.588Z,66.01
2022-11-02T17:56:00.401Z,65.45
2022-11-02T17:58:29.881Z,66.13
2022-11-02T18:01:02.354Z,65.64
2022-11-02T18:03:31.500Z,66.26
2022-11-02T18:06:02.214Z,66.12
2022-11-02T18:08:52.031Z,66.44
2022-11-02T18:11:26.484Z,66.32
2022-11-02T18:13:57.187Z,66.55
2022-11-02T18:16:32.100Z,66.82
2022-11-02T18:18:59.882Z,66.10
2022-11-02T18:21:29.125Z,66.75
2022-11-02T18:23:57.065Z,66.89
2022-11-02T18:26:24.893Z,66.83
2022-11-02T18:28:52.641Z,67.07
2022-11-02T18:31:23.524Z,67.18
2022-11-02T18:33:52.819Z,67.21
2022-11-02T18:36:20.688Z,66.79
2022-11-02T18:38:49.806Z,67.27
2022-11-02T18:41:30.953Z,67.20
2022-11-02T18:44:05.542Z,67.09
2022-11-02T18:46:35.321Z,67.38
2022-11-02T18:49:05.866Z,66.69
2022-11-02T18:51:34.023Z,67.01
2022-11-02T18:54:06.092Z,67.11
2022-11-02T18:56:33.923Z,67.07
2022-11-02T18:59:04.261Z,67.45
2022-11-02T19:01:35.078Z,67.13
2022-11-02T19:04:03.158Z,66.97
2022-11-02T19:06:50.458Z,66.89
2022-11-02T19:09:23.136Z,67.01
2022-11-02T19:11:54.645Z,67.43
2022-11-02T19:14:26.792Z,67.50
2022-11-02T19:16:54.701Z,67.12
2022-11-02T19:19:22.785Z,67.58
2022-11-02T19:21:50.694Z,67.66
2022-11-02T19:24:20.989Z,67.45
2022-11-02T19:26:51.647Z,67.18
2022-11-02T19:29:19.611Z,67.35
2022-11-02T19:31:47.572Z,67.99
2022-11-02T19:34:15.569Z,67.22
2022-11-02T19:36:45.942Z,67.25
2022-11-02T19:39:13.705Z,67.88
2022-11-02T19:41:42.810Z,68.19
2022-11-02T19:44:13.398Z,67.62
2022-11-02T19:46:47.433Z,67.84
2022-11-02T19:49:19.539Z,68.13
2022-11-02T19:51:47.479Z,67.45
2022-11-02T19:54:15.641Z,67.95
2022-11-02T19:56:47.707Z,67.24
2022-11-02T19:59:15.505Z,67.98
2022-11-02T20:01:43.705Z,68.01
2022-11-02T20:04:11.966Z,67.06
2022-11-02T20:06:41.980Z,67.56
2022-11-02T20:09:15.529Z,67.22
2022-11-02T20:11:44.844Z,67.76
2022-11-02T20:14:16.858Z,67.63
2022-11-02T20:16:58.705Z,67.20
2022-11-02T20:19:32.287Z,66.80
2022-11-02T20:22:09.418Z,67.42
2022-11-02T20:24:38.030Z,67.26
2022-11-02T20:27:07.036Z,67.29
2022-11-02T20:29:46.299Z,67.02
2022-11-02T20:32:21.447Z,67.24
2022-11-02T20:34:49.203Z,67.15
2022-11-02T20:37:16.905Z,67.19
2022-11-02T20:39:44.592Z,67.26
2022-11-02T20:42:12.503Z,67.32
2022-11-02T20:44:49.108Z,67.37
2022-11-02T20:47:16.931Z,67.83
2022-11-02T20:49:50.672Z,67.59
2022-11-02T20:52:21.816Z,67.85
2022-11-02T20:54:49.705Z,67.49
2022-11-02T20:57:17.407Z,67.46
2022-11-02T20:59:46.645Z,67.59
2022-11-02T21:02:14.503Z,67.84
2022-11-02T21:04:42.470Z,67.56
2022-11-02T21:07:10.330Z,67.31
2022-11-02T21:09:38.075Z,67.39
2022-11-02T21:12:23.726Z,67.34
2022-11-02T21:14:53.252Z,67.07
2022-11-02T21:17:21.688Z,66.59
2022-11-02T21:19:58.372Z,66.84
2022-11-02T21:22:35.860Z,66.15
2022-11-02T21:25:03.900Z,66.60
2022-11-02T21:27:31.739Z,66.05
2022-11-02T21:30:04.108Z,66.39
2022-11-02T21:32:38.189Z,65.76
2022-11-02T21:35:07.499Z,65.72
2022-11-02T21:37:35.630Z,66.00
2022-11-02T21:40:05.100Z,66.65
2022-11-02T21:42:33.895Z,65.79
2022-11-02T21:45:03.571Z,66.44
2022-11-02T21:47:34.320Z,66.48
2022-11-02T21:50:03.233Z,66.19
2022-11-02T21:52:44.093Z,65.95
2022-11-02T21:55:13.241Z,66.36
2022-11-02T21:57:47.523Z,66.61
2022-11-02T22:00:43.990Z,66.44
2022-11-02T22:03:11.942Z,66.28
2022-11-02T22:06:01.831Z,66.28
2022-11-02T22:08:41.817Z,66.67
2022-11-02T22:11:11.910Z,67.25
2022-11-02T22:13:41.558Z,67.58
2022-11-02T22:16:14.748Z,67.03
2022-11-02T22:18:47.810Z,67.48
2022-11-02T22:21:19.240Z,67.52
2022-11-02T22:23:48.529Z,67.59
2022-11-02T22:26:19.899Z,67.92
2022-11-02T22:28:48.847Z,67.69
2022-11-02T22:31:20.671Z,68.19
2022-11-02T22:33:50.856Z,68.17
2022-11-02T22:36:23.857Z,68.29
2022-11-02T22:38:56.082Z,68.01
2022-11-02T22:41:29.334Z,68.02
2022-11-02T22:44:01.328Z,68.16
2022-11-02T22:46:36.274Z,67.86
2022-11-02T22:49:06.953Z,67.98
2022-11-02T22:51:37.272Z,67.70
2022-11-02T22:54:07.570Z,68.01
2022-11-02T22:56:36.508Z,68.06
2022-11-02T22:59:06.635Z,67.31
2022-11-02T23:01:36.985Z,67.71
2022-11-02T23:04:06.259Z,66.99
2022-11-02T23:06:34.892Z,67.38
2022-11-02T23:09:03.415Z,67.50
2022-11-02T23:11:35.089Z,67.90
2022-11-02T23:14:05.684Z,67.56
2022-11-02T23:16:36.549Z,67.79
2022-11-02T23:19:30.502Z,67.70
2022-11-02T23:22:18.419Z,67.12
2022-11-02T23:25:06.299Z,68.08
2022-11-02T23:27:56.270Z,68.17
2022-11-02T23:30:42.496Z,67.59
2022-11-02T23:33:12.043Z,67.26
2022-11-02T23:36:06.755Z,67.32
2022-11-02T23:38:48.717Z,67.39
2022-11-02T23:41:22.771Z,67.81
2022-11-02T23:43:50.701Z,67.42
2022-11-02T23:46:18.991Z,67.29
2022-11-02T23:48:51.141Z,67.39
2022-11-02T23:51:39.547Z,67.55
2022-11-02T23:54:25.282Z,67.46
2022-11-02T23:56:53.126Z,67.39
2022-11-02T23:59:22.960Z,67.66
